sensor_id;sensor_type;location;lat;lon;timestamp;P1;durP1;ratioP1;P2;durP2;ratioP2
74269;SDS011;62754;48.252;11.654;2023-07-31T00:12:24;6.38;;;1.80;;
74269;SDS011;62754;48.252;11.654;2023-07-31T00:14:50;5.53;;;1.50;;
74269;SDS011;62754;48.252;11.654;2023-07-31T00:17:19;3.10;;;1.63;;
74269;SDS011;62754;48.252;11.654;2023-07-31T00:19:47;3.60;;;1.70;;
74269;SDS011;62754;48.252;11.654;2023-07-31T00:22:15;4.45;;;1.67;;
74269;SDS011;62754;48.252;11.654;2023-07-31T00:24:41;4.72;;;1.70;;
74269;SDS011;62754;48.252;11.654;2023-07-31T00:27:11;5.60;;;1.92;;
74269;SDS011;62754;48.252;11.654;2023-07-31T00:29:39;2.80;;;1.45;;
74269;SDS011;62754;48.252;11.654;2023-07-31T00:32:05;3.13;;;1.70;;
74269;SDS011;62754;48.252;11.654;2023-07-31T00:34:33;5.38;;;1.60;;
74269;SDS011;62754;48.252;11.654;2023-07-31T00:37:02;2.80;;;1.60;;
74269;SDS011;62754;48.252;11.654;2023-07-31T00:39:31;3.58;;;1.48;;
74269;SDS011;62754;48.252;11.654;2023-07-31T00:41:57;5.05;;;1.98;;
74269;SDS011;62754;48.252;11.654;2023-07-31T00:44:22;3.35;;;1.67;;
74269;SDS011;62754;48.252;11.654;2023-07-31T00:46:48;4.57;;;1.83;;
74269;SDS011;62754;48.252;11.654;2023-07-31T00:49:14;3.75;;;1.40;;
74269;SDS011;62754;48.252;11.654;2023-07-31T00:51:43;6.32;;;1.52;;
74269;SDS011;62754;48.252;11.654;2023-07-31T00:54:11;4.00;;;1.40;;
74269;SDS011;62754;48.252;11.654;2023-07-31T00:56:39;3.30;;;1.23;;
74269;SDS011;62754;48.252;11.654;2023-07-31T00:59:07;3.15;;;1.23;;
74269;SDS011;62754;48.252;11.654;2023-07-31T01:01:33;2.80;;;1.30;;
74269;SDS011;62754;48.252;11.654;2023-07-31T01:04:01;4.72;;;1.45;;
74269;SDS011;62754;48.252;11.654;2023-07-31T01:06:37;4.72;;;1.40;;
74269;SDS011;62754;48.252;11.654;2023-07-31T01:09:20;3.63;;;1.80;;
74269;SDS011;62754;48.252;11.654;2023-07-31T01:11:56;4.43;;;1.90;;
74269;SDS011;62754;48.252;11.654;2023-07-31T01:14:25;4.05;;;2.22;;
74269;SDS011;62754;48.252;11.654;2023-07-31T01:16:51;4.30;;;1.88;;
74269;SDS011;62754;48.252;11.654;2023-07-31T01:19:21;5.07;;;2.05;;
74269;SDS011;62754;48.252;11.654;2023-07-31T01:24:30;5.13;;;1.70;;
74269;SDS011;62754;48.252;11.654;2023-07-31T01:27:11;4.05;;;2.00;;
74269;SDS011;62754;48.252;11.654;2023-07-31T01:29:49;3.80;;;1.80;;
74269;SDS011;62754;48.252;11.654;2023-07-31T01:32:26;4.13;;;1.70;;
74269;SDS011;62754;48.252;11.654;2023-07-31T01:34:56;3.58;;;1.70;;
74269;SDS011;62754;48.252;11.654;2023-07-31T01:37:27;4.03;;;1.75;;
74269;SDS011;62754;48.252;11.654;2023-07-31T01:39:56;3.67;;;1.77;;
74269;SDS011;62754;48.252;11.654;2023-07-31T01:42:25;4.53;;;2.10;;
74269;SDS011;62754;48.252;11.654;2023-07-31T01:44:55;5.85;;;2.17;;
74269;SDS011;62754;48.252;11.654;2023-07-31T01:47:23;6.03;;;2.53;;
74269;SDS011;62754;48.252;11.654;2023-07-31T01:49:51;3.97;;;2.17;;
74269;SDS011;62754;48.252;11.654;2023-07-31T01:52:17;3.78;;;1.67;;
74269;SDS011;62754;48.252;11.654;2023-07-31T01:54:43;4.10;;;1.77;;
74269;SDS011;62754;48.252;11.654;2023-07-31T01:57:10;4.53;;;1.80;;
74269;SDS011;62754;48.252;11.654;2023-07-31T01:59:36;5.95;;;2.42;;
74269;SDS011;62754;48.252;11.654;2023-07-31T02:02:07;5.50;;;2.65;;
74269;SDS011;62754;48.252;11.654;2023-07-31T02:04:35;4.80;;;2.72;;
74269;SDS011;62754;48.252;11.654;2023-07-31T02:07:00;4.90;;;2.55;;
74269;SDS011;62754;48.252;11.654;2023-07-31T02:09:28;5.78;;;2.50;;
74269;SDS011;62754;48.252;11.654;2023-07-31T02:11:56;6.28;;;2.20;;
74269;SDS011;62754;48.252;11.654;2023-07-31T02:14:24;4.38;;;2.13;;
74269;SDS011;62754;48.252;11.654;2023-07-31T02:16:50;3.60;;;1.90;;
74269;SDS011;62754;48.252;11.654;2023-07-31T02:19:18;4.65;;;2.10;;
74269;SDS011;62754;48.252;11.654;2023-07-31T02:21:44;4.07;;;1.90;;
74269;SDS011;62754;48.252;11.654;2023-07-31T02:24:12;8.52;;;2.28;;
74269;SDS011;62754;48.252;11.654;2023-07-31T02:26:43;5.97;;;2.58;;
74269;SDS011;62754;48.252;11.654;2023-07-31T02:29:08;4.55;;;2.15;;
74269;SDS011;62754;48.252;11.654;2023-07-31T02:31:34;3.63;;;1.90;;
74269;SDS011;62754;48.252;11.654;2023-07-31T02:34:02;5.28;;;2.08;;
74269;SDS011;62754;48.252;11.654;2023-07-31T02:36:33;8.00;;;2.33;;
74269;SDS011;62754;48.252;11.654;2023-07-31T02:38:59;4.20;;;2.70;;
74269;SDS011;62754;48.252;11.654;2023-07-31T02:41:25;3.90;;;2.10;;
74269;SDS011;62754;48.252;11.654;2023-07-31T02:43:53;3.60;;;1.77;;
74269;SDS011;62754;48.252;11.654;2023-07-31T02:46:19;3.83;;;1.67;;
74269;SDS011;62754;48.252;11.654;2023-07-31T02:48:45;3.22;;;1.60;;
74269;SDS011;62754;48.252;11.654;2023-07-31T02:51:11;4.03;;;1.73;;
74269;SDS011;62754;48.252;11.654;2023-07-31T02:53:40;3.97;;;1.73;;
74269;SDS011;62754;48.252;11.654;2023-07-31T02:56:05;4.47;;;1.55;;
74269;SDS011;62754;48.252;11.654;2023-07-31T02:58:33;3.20;;;1.50;;
74269;SDS011;62754;48.252;11.654;2023-07-31T03:01:01;4.35;;;1.52;;
74269;SDS011;62754;48.252;11.654;2023-07-31T03:03:27;3.33;;;1.70;;
74269;SDS011;62754;48.252;11.654;2023-07-31T03:05:58;3.83;;;1.63;;
74269;SDS011;62754;48.252;11.654;2023-07-31T03:08:24;3.47;;;1.50;;
74269;SDS011;62754;48.252;11.654;2023-07-31T03:10:50;3.55;;;2.05;;
74269;SDS011;62754;48.252;11.654;2023-07-31T03:13:18;5.47;;;2.10;;
74269;SDS011;62754;48.252;11.654;2023-07-31T03:15:46;4.18;;;1.80;;
74269;SDS011;62754;48.252;11.654;2023-07-31T03:18:12;6.00;;;1.95;;
74269;SDS011;62754;48.252;11.654;2023-07-31T03:20:41;4.30;;;1.50;;
74269;SDS011;62754;48.252;11.654;2023-07-31T03:23:10;4.55;;;1.90;;
74269;SDS011;62754;48.252;11.654;2023-07-31T03:25:41;5.10;;;1.45;;
74269;SDS011;62754;48.252;11.654;2023-07-31T03:28:20;5.55;;;1.90;;
74269;SDS011;62754;48.252;11.654;2023-07-31T03:30:48;4.40;;;1.70;;
74269;SDS011;62754;48.252;11.654;2023-07-31T03:33:14;5.82;;;1.60;;
74269;SDS011;62754;48.252;11.654;2023-07-31T03:35:39;3.72;;;1.63;;
74269;SDS011;62754;48.252;11.654;2023-07-31T03:38:07;5.00;;;1.70;;
74269;SDS011;62754;48.252;11.654;2023-07-31T03:40:33;4.82;;;2.03;;
74269;SDS011;62754;48.252;11.654;2023-07-31T03:43:01;5.38;;;2.28;;
74269;SDS011;62754;48.252;11.654;2023-07-31T03:45:32;5.32;;;2.10;;
74269;SDS011;62754;48.252;11.654;2023-07-31T03:48:00;6.07;;;2.55;;
74269;SDS011;62754;48.252;11.654;2023-07-31T03:50:31;4.13;;;2.47;;
74269;SDS011;62754;48.252;11.654;2023-07-31T03:52:59;5.25;;;2.25;;
74269;SDS011;62754;48.252;11.654;2023-07-31T03:55:25;5.05;;;1.95;;
74269;SDS011;62754;48.252;11.654;2023-07-31T03:57:53;4.10;;;1.95;;
74269;SDS011;62754;48.252;11.654;2023-07-31T04:00:22;3.78;;;1.60;;
74269;SDS011;62754;48.252;11.654;2023-07-31T04:02:51;4.10;;;1.50;;
74269;SDS011;62754;48.252;11.654;2023-07-31T04:05:16;3.13;;;1.40;;
74269;SDS011;62754;48.252;11.654;2023-07-31T04:07:42;4.65;;;1.60;;
74269;SDS011;62754;48.252;11.654;2023-07-31T04:10:08;3.95;;;1.70;;
74269;SDS011;62754;48.252;11.654;2023-07-31T04:12:36;2.80;;;1.50;;
74269;SDS011;62754;48.252;11.654;2023-07-31T04:15:04;4.57;;;1.58;;
74269;SDS011;62754;48.252;11.654;2023-07-31T04:17:32;4.38;;;1.70;;
74269;SDS011;62754;48.252;11.654;2023-07-31T04:19:58;3.42;;;1.63;;
74269;SDS011;62754;48.252;11.654;2023-07-31T04:22:26;4.22;;;1.90;;
74269;SDS011;62754;48.252;11.654;2023-07-31T04:24:52;4.32;;;1.50;;
74269;SDS011;62754;48.252;11.654;2023-07-31T04:27:20;5.03;;;1.80;;
74269;SDS011;62754;48.252;11.654;2023-07-31T04:29:51;4.15;;;1.83;;
74269;SDS011;62754;48.252;11.654;2023-07-31T04:32:17;3.53;;;1.67;;
74269;SDS011;62754;48.252;11.654;2023-07-31T04:34:42;4.22;;;1.95;;
74269;SDS011;62754;48.252;11.654;2023-07-31T04:37:08;4.10;;;1.63;;
74269;SDS011;62754;48.252;11.654;2023-07-31T04:39:39;3.65;;;2.00;;
74269;SDS011;62754;48.252;11.654;2023-07-31T04:42:09;4.88;;;1.83;;
74269;SDS011;62754;48.252;11.654;2023-07-31T04:44:35;5.38;;;1.83;;
74269;SDS011;62754;48.252;11.654;2023-07-31T04:47:01;3.65;;;2.30;;
74269;SDS011;62754;48.252;11.654;2023-07-31T04:49:26;5.60;;;2.20;;
74269;SDS011;62754;48.252;11.654;2023-07-31T04:51:52;3.42;;;1.60;;
74269;SDS011;62754;48.252;11.654;2023-07-31T04:54:20;5.30;;;2.13;;
74269;SDS011;62754;48.252;11.654;2023-07-31T04:56:48;3.67;;;1.60;;
74269;SDS011;62754;48.252;11.654;2023-07-31T04:59:16;7.20;;;1.90;;
74269;SDS011;62754;48.252;11.654;2023-07-31T05:01:44;5.00;;;2.00;;
74269;SDS011;62754;48.252;11.654;2023-07-31T05:04:12;4.72;;;2.00;;
74269;SDS011;62754;48.252;11.654;2023-07-31T05:06:43;4.60;;;1.92;;
74269;SDS011;62754;48.252;11.654;2023-07-31T05:09:10;4.22;;;2.20;;
74269;SDS011;62754;48.252;11.654;2023-07-31T05:11:36;6.32;;;2.13;;
74269;SDS011;62754;48.252;11.654;2023-07-31T05:14:04;4.65;;;1.95;;
74269;SDS011;62754;48.252;11.654;2023-07-31T05:16:32;2.90;;;1.70;;
74269;SDS011;62754;48.252;11.654;2023-07-31T05:19:00;5.30;;;1.95;;
74269;SDS011;62754;48.252;11.654;2023-07-31T05:21:28;5.03;;;1.88;;
74269;SDS011;62754;48.252;11.654;2023-07-31T05:23:57;3.90;;;1.90;;
74269;SDS011;62754;48.252;11.654;2023-07-31T05:26:24;3.70;;;2.13;;
74269;SDS011;62754;48.252;11.654;2023-07-31T05:28:52;4.55;;;2.10;;
74269;SDS011;62754;48.252;11.654;2023-07-31T05:31:18;5.30;;;2.10;;
74269;SDS011;62754;48.252;11.654;2023-07-31T05:33:44;6.63;;;2.30;;
74269;SDS011;62754;48.252;11.654;2023-07-31T05:36:12;5.40;;;2.22;;
74269;SDS011;62754;48.252;11.654;2023-07-31T05:38:38;4.60;;;1.90;;
74269;SDS011;62754;48.252;11.654;2023-07-31T05:41:03;5.10;;;1.85;;
74269;SDS011;62754;48.252;11.654;2023-07-31T05:43:29;4.05;;;2.03;;
74269;SDS011;62754;48.252;11.654;2023-07-31T05:46:00;4.40;;;2.20;;
74269;SDS011;62754;48.252;11.654;2023-07-31T05:48:28;4.35;;;1.90;;
74269;SDS011;62754;48.252;11.654;2023-07-31T05:50:56;5.53;;;2.17;;
74269;SDS011;62754;48.252;11.654;2023-07-31T05:53:21;5.38;;;1.60;;
74269;SDS011;62754;48.252;11.654;2023-07-31T05:55:49;5.20;;;1.75;;
74269;SDS011;62754;48.252;11.654;2023-07-31T05:58:19;3.72;;;1.80;;
74269;SDS011;62754;48.252;11.654;2023-07-31T06:00:48;3.83;;;1.52;;
74269;SDS011;62754;48.252;11.654;2023-07-31T06:03:13;4.88;;;1.75;;
74269;SDS011;62754;48.252;11.654;2023-07-31T06:05:39;4.47;;;1.98;;
74269;SDS011;62754;48.252;11.654;2023-07-31T06:08:07;2.92;;;1.52;;
74269;SDS011;62754;48.252;11.654;2023-07-31T06:10:35;2.80;;;1.65;;
74269;SDS011;62754;48.252;11.654;2023-07-31T06:13:01;3.25;;;1.77;;
74269;SDS011;62754;48.252;11.654;2023-07-31T06:15:30;3.40;;;1.70;;
74269;SDS011;62754;48.252;11.654;2023-07-31T06:17:58;4.10;;;1.73;;
74269;SDS011;62754;48.252;11.654;2023-07-31T06:20:27;5.47;;;1.70;;
74269;SDS011;62754;48.252;11.654;2023-07-31T06:22:53;4.05;;;1.90;;
74269;SDS011;62754;48.252;11.654;2023-07-31T06:25:19;3.33;;;1.60;;
74269;SDS011;62754;48.252;11.654;2023-07-31T06:27:53;4.30;;;1.60;;
74269;SDS011;62754;48.252;11.654;2023-07-31T06:30:21;4.28;;;1.80;;
74269;SDS011;62754;48.252;11.654;2023-07-31T06:32:49;4.13;;;1.45;;
74269;SDS011;62754;48.252;11.654;2023-07-31T06:35:15;3.80;;;1.80;;
74269;SDS011;62754;48.252;11.654;2023-07-31T06:37:40;5.05;;;1.92;;
74269;SDS011;62754;48.252;11.654;2023-07-31T06:40:09;3.92;;;1.60;;
74269;SDS011;62754;48.252;11.654;2023-07-31T06:42:37;4.85;;;1.85;;
74269;SDS011;62754;48.252;11.654;2023-07-31T06:45:06;3.97;;;1.40;;
74269;SDS011;62754;48.252;11.654;2023-07-31T06:47:35;6.30;;;1.45;;
74269;SDS011;62754;48.252;11.654;2023-07-31T06:50:00;4.07;;;1.58;;
74269;SDS011;62754;48.252;11.654;2023-07-31T06:52:27;3.38;;;1.45;;
74269;SDS011;62754;48.252;11.654;2023-07-31T06:55:02;4.50;;;2.03;;
74269;SDS011;62754;48.252;11.654;2023-07-31T06:57:29;4.30;;;1.58;;
74269;SDS011;62754;48.252;11.654;2023-07-31T06:59:57;4.43;;;1.80;;
74269;SDS011;62754;48.252;11.654;2023-07-31T07:02:23;3.63;;;1.42;;
74269;SDS011;62754;48.252;11.654;2023-07-31T07:04:49;5.28;;;1.52;;
74269;SDS011;62754;48.252;11.654;2023-07-31T07:07:15;3.60;;;1.30;;
74269;SDS011;62754;48.252;11.654;2023-07-31T07:09:41;3.72;;;1.70;;
74269;SDS011;62754;48.252;11.654;2023-07-31T07:12:07;3.47;;;1.60;;
74269;SDS011;62754;48.252;11.654;2023-07-31T07:17:00;3.42;;;1.60;;
74269;SDS011;62754;48.252;11.654;2023-07-31T07:19:29;4.85;;;1.70;;
74269;SDS011;62754;48.252;11.654;2023-07-31T07:21:57;4.30;;;1.65;;
74269;SDS011;62754;48.252;11.654;2023-07-31T07:24:25;3.50;;;1.58;;
74269;SDS011;62754;48.252;11.654;2023-07-31T07:26:51;3.95;;;1.50;;
74269;SDS011;62754;48.252;11.654;2023-07-31T07:29:16;4.30;;;1.40;;
74269;SDS011;62754;48.252;11.654;2023-07-31T07:31:44;3.95;;;1.38;;
74269;SDS011;62754;48.252;11.654;2023-07-31T07:34:12;4.30;;;1.80;;
74269;SDS011;62754;48.252;11.654;2023-07-31T07:36:41;4.03;;;1.58;;
74269;SDS011;62754;48.252;11.654;2023-07-31T07:39:10;3.25;;;1.40;;
74269;SDS011;62754;48.252;11.654;2023-07-31T07:41:36;3.88;;;1.50;;
74269;SDS011;62754;48.252;11.654;2023-07-31T07:44:02;3.72;;;1.25;;
74269;SDS011;62754;48.252;11.654;2023-07-31T07:46:27;4.43;;;1.52;;
74269;SDS011;62754;48.252;11.654;2023-07-31T07:48:58;3.60;;;1.33;;
74269;SDS011;62754;48.252;11.654;2023-07-31T07:51:24;5.05;;;1.70;;
74269;SDS011;62754;48.252;11.654;2023-07-31T07:53:49;3.15;;;1.58;;
74269;SDS011;62754;48.252;11.654;2023-07-31T07:56:15;3.78;;;1.42;;
74269;SDS011;62754;48.252;11.654;2023-07-31T07:58:43;3.53;;;2.05;;
74269;SDS011;62754;48.252;11.654;2023-07-31T08:01:09;4.00;;;1.50;;
74269;SDS011;62754;48.252;11.654;2023-07-31T08:03:35;4.85;;;1.60;;
74269;SDS011;62754;48.252;11.654;2023-07-31T08:06:01;4.43;;;1.60;;
74269;SDS011;62754;48.252;11.654;2023-07-31T08:08:29;4.00;;;1.50;;
74269;SDS011;62754;48.252;11.654;2023-07-31T08:10:54;4.90;;;1.35;;
74269;SDS011;62754;48.252;11.654;2023-07-31T08:13:20;2.38;;;1.27;;
74269;SDS011;62754;48.252;11.654;2023-07-31T08:15:46;3.00;;;1.65;;
74269;SDS011;62754;48.252;11.654;2023-07-31T08:18:12;4.32;;;1.70;;
74269;SDS011;62754;48.252;11.654;2023-07-31T08:20:40;4.80;;;1.50;;
74269;SDS011;62754;48.252;11.654;2023-07-31T08:23:08;3.33;;;1.58;;
74269;SDS011;62754;48.252;11.654;2023-07-31T08:25:35;5.00;;;1.65;;
74269;SDS011;62754;48.252;11.654;2023-07-31T08:28:03;3.45;;;1.15;;
74269;SDS011;62754;48.252;11.654;2023-07-31T08:30:34;5.10;;;1.40;;
74269;SDS011;62754;48.252;11.654;2023-07-31T08:33:00;3.20;;;1.15;;
74269;SDS011;62754;48.252;11.654;2023-07-31T08:35:26;3.75;;;1.45;;
74269;SDS011;62754;48.252;11.654;2023-07-31T08:37:56;4.47;;;1.02;;
74269;SDS011;62754;48.252;11.654;2023-07-31T08:40:29;4.95;;;1.38;;
74269;SDS011;62754;48.252;11.654;2023-07-31T08:42:55;3.95;;;1.27;;
74269;SDS011;62754;48.252;11.654;2023-07-31T08:45:24;3.58;;;1.13;;
74269;SDS011;62754;48.252;11.654;2023-07-31T08:47:53;4.05;;;1.33;;
74269;SDS011;62754;48.252;11.654;2023-07-31T08:50:19;4.38;;;1.35;;
74269;SDS011;62754;48.252;11.654;2023-07-31T08:52:46;2.97;;;1.20;;
74269;SDS011;62754;48.252;11.654;2023-07-31T08:55:13;2.38;;;1.17;;
74269;SDS011;62754;48.252;11.654;2023-07-31T08:57:44;2.25;;;1.20;;
74269;SDS011;62754;48.252;11.654;2023-07-31T09:00:13;2.90;;;1.20;;
74269;SDS011;62754;48.252;11.654;2023-07-31T09:02:54;5.10;;;1.50;;
74269;SDS011;62754;48.252;11.654;2023-07-31T09:05:24;5.40;;;1.40;;
74269;SDS011;62754;48.252;11.654;2023-07-31T09:07:52;3.67;;;1.20;;
74269;SDS011;62754;48.252;11.654;2023-07-31T09:10:20;5.63;;;1.30;;
74269;SDS011;62754;48.252;11.654;2023-07-31T09:12:46;4.50;;;1.20;;
74269;SDS011;62754;48.252;11.654;2023-07-31T09:15:13;5.75;;;1.20;;
74269;SDS011;62754;48.252;11.654;2023-07-31T09:17:39;3.60;;;1.20;;
74269;SDS011;62754;48.252;11.654;2023-07-31T09:22:44;4.00;;;1.60;;
74269;SDS011;62754;48.252;11.654;2023-07-31T09:25:14;7.40;;;1.35;;
74269;SDS011;62754;48.252;11.654;2023-07-31T09:27:47;5.72;;;1.75;;
74269;SDS011;62754;48.252;11.654;2023-07-31T09:30:13;4.38;;;1.30;;
74269;SDS011;62754;48.252;11.654;2023-07-31T09:32:42;5.53;;;1.48;;
74269;SDS011;62754;48.252;11.654;2023-07-31T09:37:46;3.63;;;1.00;;
74269;SDS011;62754;48.252;11.654;2023-07-31T09:40:30;4.82;;;1.50;;
74269;SDS011;62754;48.252;11.654;2023-07-31T09:43:05;3.97;;;1.42;;
74269;SDS011;62754;48.252;11.654;2023-07-31T09:45:39;3.15;;;1.40;;
74269;SDS011;62754;48.252;11.654;2023-07-31T09:48:06;2.88;;;1.17;;
74269;SDS011;62754;48.252;11.654;2023-07-31T09:50:42;6.88;;;1.50;;
74269;SDS011;62754;48.252;11.654;2023-07-31T09:53:09;3.58;;;1.48;;
74269;SDS011;62754;48.252;11.654;2023-07-31T09:55:35;4.18;;;1.20;;
74269;SDS011;62754;48.252;11.654;2023-07-31T09:58:03;4.18;;;1.05;;
74269;SDS011;62754;48.252;11.654;2023-07-31T10:00:30;4.47;;;1.40;;
74269;SDS011;62754;48.252;11.654;2023-07-31T10:02:59;4.93;;;1.50;;
74269;SDS011;62754;48.252;11.654;2023-07-31T10:05:31;4.47;;;1.17;;
74269;SDS011;62754;48.252;11.654;2023-07-31T10:08:09;3.53;;;1.13;;
74269;SDS011;62754;48.252;11.654;2023-07-31T10:10:43;3.40;;;1.10;;
74269;SDS011;62754;48.252;11.654;2023-07-31T10:13:09;3.95;;;1.30;;
74269;SDS011;62754;48.252;11.654;2023-07-31T10:15:36;5.82;;;1.60;;
74269;SDS011;62754;48.252;11.654;2023-07-31T10:18:05;3.25;;;1.10;;
74269;SDS011;62754;48.252;11.654;2023-07-31T10:20:35;4.72;;;1.75;;
74269;SDS011;62754;48.252;11.654;2023-07-31T10:23:06;2.80;;;1.30;;
74269;SDS011;62754;48.252;11.654;2023-07-31T10:25:32;9.55;;;1.65;;
74269;SDS011;62754;48.252;11.654;2023-07-31T10:28:00;7.05;;;2.08;;
74269;SDS011;62754;48.252;11.654;2023-07-31T10:30:29;3.90;;;1.25;;
74269;SDS011;62754;48.252;11.654;2023-07-31T10:32:59;5.35;;;1.45;;
74269;SDS011;62754;48.252;11.654;2023-07-31T10:35:27;5.60;;;1.35;;
74269;SDS011;62754;48.252;11.654;2023-07-31T10:37:56;3.42;;;1.20;;
74269;SDS011;62754;48.252;11.654;2023-07-31T10:40:35;4.00;;;1.38;;
74269;SDS011;62754;48.252;11.654;2023-07-31T10:43:03;10.77;;;2.17;;
74269;SDS011;62754;48.252;11.654;2023-07-31T10:48:03;3.17;;;1.20;;
74269;SDS011;62754;48.252;11.654;2023-07-31T10:50:32;4.03;;;1.30;;
74269;SDS011;62754;48.252;11.654;2023-07-31T10:53:07;4.65;;;1.50;;
74269;SDS011;62754;48.252;11.654;2023-07-31T10:56:09;3.72;;;1.40;;
74269;SDS011;62754;48.252;11.654;2023-07-31T10:58:44;4.20;;;1.45;;
74269;SDS011;62754;48.252;11.654;2023-07-31T11:01:12;3.25;;;1.10;;
74269;SDS011;62754;48.252;11.654;2023-07-31T11:06:09;5.57;;;1.40;;
74269;SDS011;62754;48.252;11.654;2023-07-31T11:08:36;2.83;;;1.30;;
74269;SDS011;62754;48.252;11.654;2023-07-31T11:16:07;4.05;;;1.63;;
74269;SDS011;62754;48.252;11.654;2023-07-31T11:18:34;3.72;;;1.38;;
74269;SDS011;62754;48.252;11.654;2023-07-31T11:21:00;2.97;;;1.30;;
74269;SDS011;62754;48.252;11.654;2023-07-31T11:23:28;2.75;;;1.20;;
74269;SDS011;62754;48.252;11.654;2023-07-31T11:25:57;4.05;;;1.60;;
74269;SDS011;62754;48.252;11.654;2023-07-31T11:28:24;3.63;;;1.40;;
74269;SDS011;62754;48.252;11.654;2023-07-31T11:30:54;4.40;;;1.73;;
74269;SDS011;62754;48.252;11.654;2023-07-31T11:33:21;2.97;;;1.40;;
74269;SDS011;62754;48.252;11.654;2023-07-31T11:35:47;7.63;;;1.52;;
74269;SDS011;62754;48.252;11.654;2023-07-31T11:40:57;4.07;;;2.28;;
74269;SDS011;62754;48.252;11.654;2023-07-31T11:43:24;4.65;;;1.33;;
74269;SDS011;62754;48.252;11.654;2023-07-31T11:45:51;2.22;;;1.10;;
74269;SDS011;62754;48.252;11.654;2023-07-31T11:48:30;5.35;;;1.40;;
74269;SDS011;62754;48.252;11.654;2023-07-31T11:51:00;3.45;;;1.40;;
74269;SDS011;62754;48.252;11.654;2023-07-31T11:53:38;3.45;;;1.25;;
74269;SDS011;62754;48.252;11.654;2023-07-31T11:56:09;4.07;;;1.45;;
74269;SDS011;62754;48.252;11.654;2023-07-31T11:58:39;4.43;;;1.30;;
74269;SDS011;62754;48.252;11.654;2023-07-31T12:01:08;3.97;;;1.40;;
74269;SDS011;62754;48.252;11.654;2023-07-31T12:03:36;2.83;;;1.15;;
74269;SDS011;62754;48.252;11.654;2023-07-31T12:06:05;4.05;;;1.50;;
74269;SDS011;62754;48.252;11.654;2023-07-31T12:11:01;2.92;;;1.23;;
74269;SDS011;62754;48.252;11.654;2023-07-31T12:13:30;2.53;;;1.23;;
74269;SDS011;62754;48.252;11.654;2023-07-31T12:15:59;11.68;;;2.30;;
74269;SDS011;62754;48.252;11.654;2023-07-31T12:18:27;6.22;;;1.80;;
74269;SDS011;62754;48.252;11.654;2023-07-31T12:20:56;6.82;;;1.38;;
74269;SDS011;62754;48.252;11.654;2023-07-31T12:23:27;3.58;;;1.70;;
74269;SDS011;62754;48.252;11.654;2023-07-31T12:28:34;4.25;;;1.30;;
74269;SDS011;62754;48.252;11.654;2023-07-31T12:31:01;3.00;;;1.35;;
74269;SDS011;62754;48.252;11.654;2023-07-31T12:33:33;3.42;;;1.30;;
74269;SDS011;62754;48.252;11.654;2023-07-31T12:36:01;4.47;;;1.40;;
74269;SDS011;62754;48.252;11.654;2023-07-31T12:38:30;5.50;;;1.42;;
74269;SDS011;62754;48.252;11.654;2023-07-31T12:40:56;4.65;;;1.50;;
74269;SDS011;62754;48.252;11.654;2023-07-31T12:45:53;3.75;;;1.30;;
74269;SDS011;62754;48.252;11.654;2023-07-31T12:48:22;4.75;;;1.38;;
74269;SDS011;62754;48.252;11.654;2023-07-31T12:50:50;4.35;;;1.42;;
74269;SDS011;62754;48.252;11.654;2023-07-31T12:55:41;2.78;;;1.38;;
74269;SDS011;62754;48.252;11.654;2023-07-31T13:00:37;3.22;;;1.40;;
74269;SDS011;62754;48.252;11.654;2023-07-31T13:03:05;2.75;;;1.20;;
74269;SDS011;62754;48.252;11.654;2023-07-31T13:05:31;4.65;;;1.88;;
74269;SDS011;62754;48.252;11.654;2023-07-31T13:08:00;4.57;;;1.27;;
74269;SDS011;62754;48.252;11.654;2023-07-31T13:10:28;3.72;;;1.30;;
74269;SDS011;62754;48.252;11.654;2023-07-31T13:12:56;2.90;;;1.58;;
74269;SDS011;62754;48.252;11.654;2023-07-31T13:15:24;3.85;;;1.75;;
74269;SDS011;62754;48.252;11.654;2023-07-31T13:17:50;2.92;;;1.38;;
74269;SDS011;62754;48.252;11.654;2023-07-31T13:20:18;4.00;;;1.45;;
74269;SDS011;62754;48.252;11.654;2023-07-31T13:22:46;4.60;;;1.45;;
74269;SDS011;62754;48.252;11.654;2023-07-31T13:27:39;3.00;;;1.40;;
74269;SDS011;62754;48.252;11.654;2023-07-31T13:30:08;3.47;;;1.38;;
74269;SDS011;62754;48.252;11.654;2023-07-31T13:32:34;5.25;;;1.58;;
74269;SDS011;62754;48.252;11.654;2023-07-31T13:37:27;3.47;;;1.30;;
74269;SDS011;62754;48.252;11.654;2023-07-31T13:42:19;4.25;;;1.40;;
74269;SDS011;62754;48.252;11.654;2023-07-31T13:47:13;4.88;;;1.30;;
74269;SDS011;62754;48.252;11.654;2023-07-31T13:52:04;4.28;;;1.50;;
74269;SDS011;62754;48.252;11.654;2023-07-31T13:56:56;3.50;;;1.10;;
74269;SDS011;62754;48.252;11.654;2023-07-31T13:59:24;3.72;;;1.33;;
74269;SDS011;62754;48.252;11.654;2023-07-31T14:01:50;2.20;;;1.10;;
74269;SDS011;62754;48.252;11.654;2023-07-31T14:04:16;4.68;;;1.08;;
74269;SDS011;62754;48.252;11.654;2023-07-31T14:06:42;2.88;;;1.27;;
74269;SDS011;62754;48.252;11.654;2023-07-31T14:09:07;3.70;;;1.30;;
74269;SDS011;62754;48.252;11.654;2023-07-31T14:11:37;3.38;;;1.20;;
74269;SDS011;62754;48.252;11.654;2023-07-31T14:14:03;2.90;;;1.30;;
74269;SDS011;62754;48.252;11.654;2023-07-31T14:16:31;3.28;;;1.20;;
74269;SDS011;62754;48.252;11.654;2023-07-31T14:18:59;3.70;;;1.00;;
74269;SDS011;62754;48.252;11.654;2023-07-31T14:23:51;2.30;;;1.20;;
74269;SDS011;62754;48.252;11.654;2023-07-31T14:26:20;4.85;;;1.40;;
74269;SDS011;62754;48.252;11.654;2023-07-31T14:31:11;2.78;;;1.17;;
74269;SDS011;62754;48.252;11.654;2023-07-31T14:36:05;3.25;;;1.27;;
74269;SDS011;62754;48.252;11.654;2023-07-31T14:38:33;3.10;;;1.45;;
74269;SDS011;62754;48.252;11.654;2023-07-31T14:41:01;3.78;;;1.40;;
74269;SDS011;62754;48.252;11.654;2023-07-31T14:43:29;3.22;;;1.55;;
74269;SDS011;62754;48.252;11.654;2023-07-31T14:48:23;2.63;;;1.35;;
74269;SDS011;62754;48.252;11.654;2023-07-31T14:50:49;3.92;;;1.48;;
74269;SDS011;62754;48.252;11.654;2023-07-31T14:55:43;3.40;;;1.60;;
74269;SDS011;62754;48.252;11.654;2023-07-31T14:58:11;3.88;;;1.60;;
74269;SDS011;62754;48.252;11.654;2023-07-31T15:00:39;4.35;;;1.67;;
74269;SDS011;62754;48.252;11.654;2023-07-31T15:03:10;4.03;;;1.92;;
74269;SDS011;62754;48.252;11.654;2023-07-31T15:05:35;3.28;;;1.40;;
74269;SDS011;62754;48.252;11.654;2023-07-31T15:08:01;3.50;;;1.60;;
74269;SDS011;62754;48.252;11.654;2023-07-31T15:10:27;4.50;;;1.60;;
74269;SDS011;62754;48.252;11.654;2023-07-31T15:12:53;3.80;;;1.45;;
74269;SDS011;62754;48.252;11.654;2023-07-31T15:15:18;6.03;;;1.95;;
74269;SDS011;62754;48.252;11.654;2023-07-31T15:17:46;5.93;;;2.10;;
74269;SDS011;62754;48.252;11.654;2023-07-31T15:20:14;3.47;;;1.70;;
74269;SDS011;62754;48.252;11.654;2023-07-31T15:22:40;4.18;;;1.63;;
74269;SDS011;62754;48.252;11.654;2023-07-31T15:25:06;4.20;;;1.40;;
74269;SDS011;62754;48.252;11.654;2023-07-31T15:27:35;4.43;;;1.65;;
74269;SDS011;62754;48.252;11.654;2023-07-31T15:30:00;3.92;;;1.67;;
74269;SDS011;62754;48.252;11.654;2023-07-31T15:32:26;3.47;;;1.55;;
74269;SDS011;62754;48.252;11.654;2023-07-31T15:34:52;5.45;;;1.60;;
74269;SDS011;62754;48.252;11.654;2023-07-31T15:37:23;6.65;;;1.80;;
74269;SDS011;62754;48.252;11.654;2023-07-31T15:39:54;6.60;;;2.05;;
74269;SDS011;62754;48.252;11.654;2023-07-31T15:42:21;6.18;;;1.70;;
74269;SDS011;62754;48.252;11.654;2023-07-31T15:44:47;4.22;;;1.70;;
74269;SDS011;62754;48.252;11.654;2023-07-31T15:47:13;3.00;;;1.55;;
74269;SDS011;62754;48.252;11.654;2023-07-31T15:49:39;4.95;;;1.92;;
74269;SDS011;62754;48.252;11.654;2023-07-31T15:52:05;3.80;;;1.60;;